createdAt,value
2023-01-10T00:01:42.173Z,101318.00
2023-01-10T00:04:09.104Z,101272.03
2023-01-10T00:06:36.327Z,101335.13
2023-01-10T00:09:03.633Z,101338.63
2023-01-10T00:12:11.535Z,101304.31
2023-01-10T00:14:38.843Z,101332.03
2023-01-10T00:17:05.748Z,101320.31
2023-01-10T00:19:33.118Z,101325.53
2023-01-10T00:22:09.747Z,101286.66
2023-01-10T00:24:36.564Z,101280.78
2023-01-10T00:27:03.453Z,101352.91
2023-01-10T00:29:35.421Z,101302.56
2023-01-10T00:32:02.759Z,101323.63
2023-01-10T00:34:31.370Z,101342.91
2023-01-10T00:36:58.206Z,101300.25
2023-01-10T00:39:27.662Z,101310.84
2023-01-10T00:42:12.882Z,101369.72
2023-01-10T00:44:39.640Z,101320.31
2023-01-10T00:47:06.895Z,101389.00
2023-01-10T00:49:34.012Z,101359.84
2023-01-10T00:52:01.001Z,101374.53
2023-01-10T00:54:27.896Z,101336.06
2023-01-10T00:56:54.701Z,101358.91
2023-01-10T00:59:21.678Z,101355.56
2023-01-10T01:01:49.166Z,101413.06
2023-01-10T01:04:15.987Z,101394.56
2023-01-10T01:06:47.780Z,101357.25
2023-01-10T01:09:16.555Z,101427.81
2023-01-10T01:11:43.395Z,101378.81
2023-01-10T01:14:10.780Z,101428.00
2023-01-10T01:16:37.609Z,101426.38
2023-01-10T01:19:04.654Z,101428.16
2023-01-10T01:21:31.681Z,101412.78
2023-01-10T01:23:58.739Z,101361.56
2023-01-10T01:26:26.361Z,101441.56
2023-01-10T01:28:53.262Z,101440.78
2023-01-10T01:31:20.214Z,101438.16
2023-01-10T01:33:47.232Z,101403.69
2023-01-10T01:36:14.411Z,101445.31
2023-01-10T01:38:42.280Z,101386.16
2023-01-10T01:41:29.491Z,101433.69
2023-01-10T01:44:16.802Z,101471.78
2023-01-10T01:46:48.970Z,101421.81
2023-01-10T01:49:22.180Z,101426.91
2023-01-10T01:51:54.898Z,101426.28
2023-01-10T01:54:21.876Z,101435.88
2023-01-10T01:56:54.914Z,101433.31
2023-01-10T01:59:24.772Z,101474.44
2023-01-10T02:01:56.965Z,101397.44
2023-01-10T02:04:32.143Z,101441.22
2023-01-10T02:07:00.115Z,101432.66
2023-01-10T02:09:52.914Z,101475.22
2023-01-10T02:12:20.192Z,101444.81
2023-01-10T02:14:50.556Z,101477.25
2023-01-10T02:17:17.586Z,101411.16
2023-01-10T02:19:57.187Z,101466.84
2023-01-10T02:22:42.324Z,101478.78
2023-01-10T02:26:15.615Z,101450.69
2023-01-10T02:29:15.957Z,101481.09
2023-01-10T02:32:09.295Z,101483.78
2023-01-10T02:35:26.882Z,101473.50
2023-01-10T02:37:59.903Z,101470.44
2023-01-10T02:40:42.883Z,101476.19
2023-01-10T02:43:15.010Z,101470.06
2023-01-10T02:46:04.404Z,101488.13
2023-01-10T02:48:31.509Z,101476.38
2023-01-10T02:51:08.641Z,101497.47
2023-01-10T02:53:43.259Z,101489.03
2023-01-10T02:56:44.358Z,101522.13
2023-01-10T02:59:38.979Z,101513.94
2023-01-10T03:02:22.755Z,101535.19
2023-01-10T03:05:22.742Z,101523.97
2023-01-10T03:08:14.414Z,101536.22
2023-01-10T03:10:59.006Z,101537.22
2023-01-10T03:13:45.340Z,101531.28
2023-01-10T03:16:27.437Z,101532.25
2023-01-10T03:19:00.809Z,101542.91
2023-01-10T03:21:31.084Z,101540.09
2023-01-10T03:24:07.075Z,101511.13
2023-01-10T03:26:55.058Z,101553.34
2023-01-10T03:29:47.619Z,101488.28
2023-01-10T03:32:19.949Z,101489.31
2023-01-10T03:34:48.249Z,101501.50
2023-01-10T03:37:28.887Z,101497.31
2023-01-10T03:40:14.076Z,101519.75
2023-01-10T03:43:05.273Z,101502.03
2023-01-10T03:45:51.714Z,101507.97
2023-01-10T03:48:21.032Z,101559.34
2023-01-10T03:50:49.177Z,101513.88
2023-01-10T03:53:16.532Z,101542.56
2023-01-10T03:55:45.626Z,101517.81
2023-01-10T03:58:12.440Z,101567.56
2023-01-10T04:00:41.771Z,101583.34
2023-01-10T04:03:10.113Z,101594.50
2023-01-10T04:05:37.097Z,101555.22
2023-01-10T04:08:04.142Z,101546.66
2023-01-10T04:10:31.104Z,101564.38
2023-01-10T04:13:02.711Z,101561.91
2023-01-10T04:15:30.112Z,101553.44
2023-01-10T04:17:57.142Z,101615.53
2023-01-10T04:20:27.345Z,101551.72
2023-01-10T04:22:55.614Z,101606.16
2023-01-10T04:25:23.696Z,101581.13
2023-01-10T04:27:51.532Z,101585.66
2023-01-10T04:30:20.660Z,101582.13
2023-01-10T04:32:48.198Z,101633.75
2023-01-10T04:35:15.381Z,101632.59
2023-01-10T04:37:43.647Z,101598.31
2023-01-10T04:40:11.189Z,101579.53
2023-01-10T04:42:37.948Z,101626.88
2023-01-10T04:45:05.676Z,101568.38
2023-01-10T04:47:32.573Z,101603.03
2023-01-10T04:50:00.979Z,101570.72
2023-01-10T04:52:28.280Z,101611.25
2023-01-10T04:54:55.499Z,101624.91
2023-01-10T04:57:23.579Z,101655.94
2023-01-10T04:59:51.649Z,101615.72
2023-01-10T05:02:19.072Z,101603.13
2023-01-10T05:04:45.830Z,101618.47
2023-01-10T05:07:12.687Z,101587.69
2023-01-10T05:09:39.825Z,101623.50
2023-01-10T05:12:06.672Z,101625.34
2023-01-10T05:14:33.501Z,101627.03
2023-01-10T05:17:00.247Z,101645.50
2023-01-10T05:19:26.973Z,101612.06
2023-01-10T05:21:53.736Z,101660.31
2023-01-10T05:24:20.639Z,101663.13
2023-01-10T05:26:47.434Z,101640.13
2023-01-10T05:29:14.859Z,101671.53
2023-01-10T05:31:42.663Z,101649.03
2023-01-10T05:34:13.074Z,101641.75
2023-01-10T05:36:40.398Z,101627.63
2023-01-10T05:39:07.197Z,101668.69
2023-01-10T05:41:38.512Z,101669.66
2023-01-10T05:44:05.444Z,101673.44
2023-01-10T05:46:32.274Z,101707.97
2023-01-10T05:48:59.823Z,101660.56
2023-01-10T05:51:27.009Z,101663.41
2023-01-10T05:53:53.747Z,101699.31
2023-01-10T05:56:21.073Z,101708.84
2023-01-10T05:58:54.066Z,101667.72
2023-01-10T06:01:27.533Z,101697.28
2023-01-10T06:03:55.442Z,101695.38
2023-01-10T06:06:22.275Z,101735.19
2023-01-10T06:08:48.947Z,101668.13
2023-01-10T06:11:15.867Z,101736.28
2023-01-10T06:13:42.760Z,101688.69
2023-01-10T06:16:09.776Z,101721.38
2023-01-10T06:18:36.625Z,101683.28
2023-01-10T06:21:03.514Z,101676.59
2023-01-10T06:23:30.647Z,101706.44
2023-01-10T06:25:57.475Z,101681.94
2023-01-10T06:28:24.319Z,101675.84
2023-01-10T06:30:51.155Z,101678.72
2023-01-10T06:33:18.049Z,101679.63
2023-01-10T06:35:47.092Z,101726.34
2023-01-10T06:38:14.898Z,101691.28
2023-01-10T06:40:41.713Z,101732.81
2023-01-10T06:43:08.751Z,101763.06
2023-01-10T06:45:36.362Z,101778.38
2023-01-10T06:48:03.410Z,101718.16
2023-01-10T06:50:32.093Z,101761.34
2023-01-10T06:53:00.193Z,101714.19
2023-01-10T06:55:27.782Z,101778.03
2023-01-10T06:58:02.225Z,101705.25
2023-01-10T07:00:30.043Z,101707.94
2023-01-10T07:03:01.443Z,101726.97
2023-01-10T07:05:29.909Z,101792.41
2023-01-10T07:07:59.028Z,101788.22
2023-01-10T07:10:26.070Z,101765.81
2023-01-10T07:12:55.462Z,101792.94
2023-01-10T07:15:22.464Z,101751.00
2023-01-10T07:17:49.768Z,101764.09
2023-01-10T07:20:17.200Z,101814.06
2023-01-10T07:22:44.059Z,101760.50
2023-01-10T07:25:11.037Z,101838.19
2023-01-10T07:27:40.310Z,101789.06
2023-01-10T07:30:08.513Z,101802.16
2023-01-10T07:32:35.322Z,101791.94
2023-01-10T07:35:02.471Z,101799.19
2023-01-10T07:37:30.277Z,101783.69
2023-01-10T07:39:57.315Z,101830.91
2023-01-10T07:42:24.612Z,101831.97
2023-01-10T07:44:51.724Z,101802.56
2023-01-10T07:47:18.839Z,101806.88
2023-01-10T07:49:45.772Z,101776.78
2023-01-10T07:52:13.801Z,101787.28
2023-01-10T07:54:44.798Z,101780.69
2023-01-10T07:57:11.766Z,101831.63
2023-01-10T07:59:38.859Z,101769.56
2023-01-10T08:02:06.007Z,101855.94
2023-01-10T08:04:33.895Z,101800.66
2023-01-10T08:07:00.822Z,101819.56
2023-01-10T08:09:28.204Z,101866.31
2023-01-10T08:11:55.755Z,101816.34
2023-01-10T08:14:22.647Z,101805.31
2023-01-10T08:16:49.776Z,101824.44
2023-01-10T08:19:18.047Z,101798.31
2023-01-10T08:21:44.872Z,101872.97
2023-01-10T08:24:11.646Z,101839.00
2023-01-10T08:26:38.569Z,101812.38
2023-01-10T08:29:05.324Z,101794.53
2023-01-10T08:31:32.260Z,101865.97
2023-01-10T08:33:59.097Z,101814.88
2023-01-10T08:36:26.047Z,101780.41
2023-01-10T08:38:55.824Z,101790.22
2023-01-10T08:41:22.880Z,101785.81
2023-01-10T08:43:51.570Z,101816.59
2023-01-10T08:46:20.409Z,101841.75
2023-01-10T08:48:48.557Z,101808.50
2023-01-10T08:51:15.426Z,101809.75
2023-01-10T08:53:42.787Z,101818.22
2023-01-10T08:56:11.387Z,101790.91
2023-01-10T08:58:38.323Z,101824.38
2023-01-10T09:01:06.822Z,101773.50
2023-01-10T09:03:34.383Z,101828.78
2023-01-10T09:06:03.645Z,101857.25
2023-01-10T09:08:30.713Z,101833.09
2023-01-10T09:11:01.071Z,101814.53
2023-01-10T09:13:31.184Z,101850.13
2023-01-10T09:16:00.111Z,101842.19
2023-01-10T09:18:27.474Z,101843.88
2023-01-10T09:20:54.659Z,101840.75
2023-01-10T09:23:23.235Z,101843.00
2023-01-10T09:25:52.429Z,101850.91
2023-01-10T09:28:22.593Z,101862.19
2023-01-10T09:30:49.513Z,101802.06
2023-01-10T09:33:16.629Z,101806.94
2023-01-10T09:35:43.913Z,101819.38
2023-01-10T09:38:16.929Z,101831.38
2023-01-10T09:41:05.297Z,101848.41
2023-01-10T09:43:55.764Z,101850.09
2023-01-10T09:46:37.785Z,101781.69
2023-01-10T09:49:17.038Z,101838.34
2023-01-10T09:51:50.771Z,101853.34
2023-01-10T09:54:24.307Z,101774.03
2023-01-10T09:56:52.963Z,101859.56
2023-01-10T09:59:36.490Z,101788.72
2023-01-10T10:02:32.276Z,101853.09
2023-01-10T10:05:22.039Z,101826.19
2023-01-10T10:08:02.452Z,101842.31
2023-01-10T10:10:40.031Z,101762.13
2023-01-10T10:13:27.741Z,101842.31
2023-01-10T10:16:09.171Z,101752.44
2023-01-10T10:19:10.899Z,101824.38
2023-01-10T10:21:37.943Z,101832.84
2023-01-10T10:24:23.831Z,101828.47
2023-01-10T10:27:02.265Z,101782.94
2023-01-10T10:29:48.782Z,101782.94
2023-01-10T10:32:35.798Z,101831.13
2023-01-10T10:35:13.417Z,101811.56
2023-01-10T10:37:48.891Z,101796.78
2023-01-10T10:40:19.139Z,101762.47
2023-01-10T10:42:52.582Z,101789.31
2023-01-10T10:45:29.186Z,101784.22
2023-01-10T10:48:00.690Z,101764.28
2023-01-10T10:50:41.865Z,101741.16
2023-01-10T10:53:11.655Z,101808.03
2023-01-10T10:55:39.893Z,101805.41
2023-01-10T10:58:08.210Z,101775.16
2023-01-10T11:00:35.280Z,101742.44
2023-01-10T11:03:30.012Z,101777.63
2023-01-10T11:05:58.042Z,101718.03
2023-01-10T11:08:25.863Z,101725.78
2023-01-10T11:10:55.694Z,101767.03
2023-01-10T11:13:34.151Z,101773.91
2023-01-10T11:16:04.744Z,101738.50
2023-01-10T11:18:33.309Z,101783.63
2023-01-10T11:21:06.455Z,101780.09
2023-01-10T11:23:33.222Z,101769.38
2023-01-10T11:26:01.082Z,101681.56
2023-01-10T11:28:31.817Z,101684.06
2023-01-10T11:30:59.544Z,101679.75
2023-01-10T11:33:32.887Z,101717.44
2023-01-10T11:36:09.122Z,101684.09
2023-01-10T11:38:36.633Z,101694.00
2023-01-10T11:41:25.243Z,101723.81
2023-01-10T11:43:52.067Z,101678.91
2023-01-10T11:46:22.933Z,101730.44
2023-01-10T11:49:07.775Z,101695.25
2023-01-10T11:51:51.222Z,101697.56
2023-01-10T11:54:23.624Z,101715.44
2023-01-10T11:56:59.484Z,101734.19
2023-01-10T11:59:28.435Z,101669.53
2023-01-10T12:02:13.677Z,101724.53
2023-01-10T12:04:45.936Z,101652.97
2023-01-10T12:07:12.988Z,101668.31
2023-01-10T12:09:46.380Z,101665.53
2023-01-10T12:12:23.182Z,101702.25
2023-01-10T12:14:50.898Z,101653.13
2023-01-10T12:17:25.896Z,101638.47
2023-01-10T12:19:55.838Z,101696.56
2023-01-10T12:22:34.496Z,101653.97
2023-01-10T12:25:17.700Z,101679.00
2023-01-10T12:27:50.362Z,101597.88
2023-01-10T12:30:56.099Z,101633.19
2023-01-10T12:33:36.619Z,101639.94
2023-01-10T12:36:33.920Z,101661.38
2023-01-10T12:39:14.748Z,101591.69
2023-01-10T12:42:21.221Z,101599.34
2023-01-10T12:44:56.255Z,101643.78
2023-01-10T12:48:02.378Z,101627.47
2023-01-10T12:50:39.587Z,101619.81
2023-01-10T12:53:09.986Z,101633.09
2023-01-10T12:55:45.561Z,101611.03
2023-01-10T12:58:23.024Z,101602.13
2023-01-10T13:01:00.484Z,101589.47
2023-01-10T13:03:33.999Z,101587.81
2023-01-10T13:06:02.002Z,101565.28
2023-01-10T13:08:33.939Z,101582.91
2023-01-10T13:11:02.363Z,101585.06
2023-01-10T13:13:52.271Z,101583.09
2023-01-10T13:16:33.981Z,101580.41
2023-01-10T13:19:09.904Z,101577.41
2023-01-10T13:21:42.068Z,101497.53
2023-01-10T13:24:29.028Z,101505.00
2023-01-10T13:27:02.262Z,101493.75
2023-01-10T13:29:51.221Z,101539.78
2023-01-10T13:32:29.175Z,101474.41
2023-01-10T13:35:19.547Z,101544.09
2023-01-10T13:37:54.523Z,101539.78
2023-01-10T13:40:28.683Z,101482.97
2023-01-10T13:43:38.445Z,101554.06
2023-01-10T13:46:17.674Z,101546.34
2023-01-10T13:48:53.745Z,101544.69
2023-01-10T13:51:22.620Z,101539.31
2023-01-10T13:53:52.293Z,101540.09
2023-01-10T13:56:30.988Z,101528.84
2023-01-10T13:59:17.372Z,101437.72
2023-01-10T14:02:09.774Z,101485.97
2023-01-10T14:04:48.239Z,101464.25
2023-01-10T14:07:23.969Z,101511.63
2023-01-10T14:09:52.713Z,101499.63
2023-01-10T14:12:25.300Z,101474.72
2023-01-10T14:15:03.176Z,101448.00
2023-01-10T14:17:32.400Z,101455.84
2023-01-10T14:20:06.103Z,101452.59
2023-01-10T14:22:36.356Z,101468.72
2023-01-10T14:25:09.893Z,101428.16
2023-01-10T14:27:45.202Z,101442.19
2023-01-10T14:30:24.430Z,101432.88
2023-01-10T14:33:18.420Z,101432.88
2023-01-10T14:35:59.187Z,101383.00
2023-01-10T14:38:39.891Z,101380.69
2023-01-10T14:41:19.222Z,101355.50
2023-01-10T14:43:55.080Z,101393.38
2023-01-10T14:46:45.060Z,101364.66
2023-01-10T14:49:31.351Z,101323.25
2023-01-10T14:52:16.582Z,101396.66
2023-01-10T14:54:43.588Z,101314.28
2023-01-10T14:57:22.714Z,101318.22
2023-01-10T14:59:50.872Z,101281.91
2023-01-10T15:02:25.734Z,101293.84
2023-01-10T15:04:57.156Z,101347.00
2023-01-10T15:07:25.886Z,101274.94
2023-01-10T15:09:59.138Z,101306.31
2023-01-10T15:12:29.300Z,101282.94
2023-01-10T15:15:07.332Z,101312.03
2023-01-10T15:17:37.022Z,101273.91
2023-01-10T15:20:05.157Z,101316.28
2023-01-10T15:22:36.647Z,101264.78
2023-01-10T15:25:40.261Z,101240.19
2023-01-10T15:28:18.437Z,101275.16
2023-01-10T15:30:46.357Z,101241.97
2023-01-10T15:33:16.876Z,101192.94
2023-01-10T15:35:44.323Z,101278.78
2023-01-10T15:38:22.192Z,101195.63
2023-01-10T15:41:04.031Z,101272.53
2023-01-10T15:43:33.322Z,101208.66
2023-01-10T15:46:02.647Z,101220.56
2023-01-10T15:48:39.220Z,101277.06
2023-01-10T15:51:26.766Z,101242.31
2023-01-10T15:54:03.764Z,101221.78
2023-01-10T15:56:35.161Z,101213.72
2023-01-10T15:59:04.978Z,101179.16
2023-01-10T16:01:33.927Z,101203.72
2023-01-10T16:04:12.108Z,101185.09
2023-01-10T16:06:39.362Z,101172.66
2023-01-10T16:09:17.971Z,101174.34
2023-01-10T16:12:08.692Z,101198.44
2023-01-10T16:14:37.943Z,101183.59
2023-01-10T16:17:07.535Z,101094.00
2023-01-10T16:19:35.236Z,101139.34
2023-01-10T16:22:02.407Z,101106.50
2023-01-10T16:24:36.000Z,101091.78
2023-01-10T16:27:06.765Z,101068.84
2023-01-10T16:29:35.695Z,101104.00
2023-01-10T16:32:03.051Z,101102.28
2023-01-10T16:34:34.163Z,101126.19
2023-01-10T16:37:01.080Z,101095.25
2023-01-10T16:39:28.211Z,101085.34
2023-01-10T16:42:13.496Z,101094.94
2023-01-10T16:44:41.689Z,101093.28
2023-01-10T16:47:08.616Z,101044.19
2023-01-10T16:49:35.654Z,101033.59
2023-01-10T16:52:03.859Z,101094.81
2023-01-10T16:54:31.289Z,101090.53
2023-01-10T16:56:58.994Z,101087.84
2023-01-10T16:59:26.236Z,101118.59
2023-01-10T17:01:58.453Z,101025.31
2023-01-10T17:04:36.107Z,101068.84
2023-01-10T17:07:03.408Z,101097.81
2023-01-10T17:09:32.150Z,101052.66
2023-01-10T17:12:03.281Z,101031.09
2023-01-10T17:14:32.841Z,101100.25
2023-01-10T17:17:03.833Z,101016.78
2023-01-10T17:19:31.282Z,101062.59
2023-01-10T17:21:58.126Z,101000.09
2023-01-10T17:24:25.173Z,101054.16
2023-01-10T17:26:52.184Z,101019.34
2023-01-10T17:29:18.947Z,101016.16
2023-01-10T17:31:45.927Z,101052.19
2023-01-10T17:34:14.238Z,101016.16
2023-01-10T17:36:41.306Z,101048.63
2023-01-10T17:39:08.225Z,101013.41
2023-01-10T17:41:35.899Z,100992.56
2023-01-10T17:44:02.818Z,101016.34
2023-01-10T17:46:29.794Z,101019.06
2023-01-10T17:48:56.746Z,101012.78
2023-01-10T17:51:28.380Z,100948.91
2023-01-10T17:53:56.194Z,101013.59
2023-01-10T17:56:23.872Z,101003.19
2023-01-10T17:58:54.085Z,101029.66
2023-01-10T18:01:25.143Z,100998.88
2023-01-10T18:03:52.960Z,100977.16
2023-01-10T18:06:24.910Z,100972.69
2023-01-10T18:08:54.157Z,100942.78
2023-01-10T18:11:22.971Z,100934.66
2023-01-10T18:13:50.034Z,100975.19
2023-01-10T18:16:17.041Z,100971.97
2023-01-10T18:18:43.959Z,100957.81
2023-01-10T18:21:16.480Z,100977.09
2023-01-10T18:23:47.040Z,100980.72
2023-01-10T18:26:13.895Z,100947.44
2023-01-10T18:28:43.505Z,100918.56
2023-01-10T18:31:18.857Z,100929.50
2023-01-10T18:33:47.880Z,100913.94
2023-01-10T18:36:20.145Z,100917.56
2023-01-10T18:38:48.208Z,100985.63
2023-01-10T18:41:16.948Z,100960.50
2023-01-10T18:43:47.779Z,100909.22
2023-01-10T18:46:22.441Z,100959.56
2023-01-10T18:48:52.575Z,100946.41
2023-01-10T18:51:19.632Z,100969.22
2023-01-10T18:53:49.185Z,100968.84
2023-01-10T18:56:19.219Z,100902.88
2023-01-10T18:58:46.618Z,100945.03
2023-01-10T19:01:16.994Z,100920.88
2023-01-10T19:03:44.622Z,100915.44
2023-01-10T19:06:16.282Z,100927.22
2023-01-10T19:08:46.147Z,100924.13
2023-01-10T19:11:16.805Z,100924.13
2023-01-10T19:13:48.456Z,100954.44
2023-01-10T19:16:21.051Z,100941.66
2023-01-10T19:18:55.408Z,100938.78
2023-01-10T19:21:23.082Z,100933.19
2023-01-10T19:23:55.481Z,100938.00
2023-01-10T19:26:23.788Z,100915.34
2023-01-10T19:28:50.774Z,100938.53
2023-01-10T19:31:19.944Z,100931.31
2023-01-10T19:33:48.333Z,100907.78
2023-01-10T19:36:15.601Z,100938.03
2023-01-10T19:38:42.751Z,100853.22
2023-01-10T19:41:10.150Z,100864.38
2023-01-10T19:43:37.080Z,100885.94
2023-01-10T19:46:11.375Z,100887.41
2023-01-10T19:48:38.689Z,100855.41
2023-01-10T19:51:12.991Z,100902.69
2023-01-10T19:53:46.614Z,100883.38
2023-01-10T19:56:24.871Z,100871.34
2023-01-10T19:58:53.822Z,100879.09
2023-01-10T20:01:27.638Z,100887.56
2023-01-10T20:03:58.441Z,100827.19
2023-01-10T20:06:27.436Z,100864.28
2023-01-10T20:08:55.338Z,100900.84
2023-01-10T20:11:25.039Z,100891.56
2023-01-10T20:13:52.905Z,100887.91
2023-01-10T20:16:22.075Z,100875.81
2023-01-10T20:18:51.532Z,100860.66
2023-01-10T20:21:19.672Z,100858.03
2023-01-10T20:23:48.978Z,100873.59
2023-01-10T20:26:21.997Z,100815.97
2023-01-10T20:28:51.045Z,100788.72
2023-01-10T20:31:21.392Z,100774.50
2023-01-10T20:33:48.789Z,100789.00
2023-01-10T20:36:18.766Z,100800.63
2023-01-10T20:38:46.092Z,100794.00
2023-01-10T20:41:22.327Z,100813.06
2023-01-10T20:43:49.835Z,100813.56
2023-01-10T20:46:20.139Z,100781.34
2023-01-10T20:48:47.782Z,100800.03
2023-01-10T20:51:22.138Z,100782.59
2023-01-10T20:53:51.672Z,100795.25
2023-01-10T20:56:24.505Z,100825.72
2023-01-10T20:58:52.387Z,100823.03
2023-01-10T21:01:33.104Z,100744.47
2023-01-10T21:04:02.251Z,100801.81
2023-01-10T21:06:29.246Z,100760.03
2023-01-10T21:08:58.099Z,100771.88
2023-01-10T21:11:25.016Z,100734.00
2023-01-10T21:13:53.069Z,100740.91
2023-01-10T21:16:22.561Z,100751.88
2023-01-10T21:18:50.808Z,100807.84
2023-01-10T21:21:22.723Z,100742.81
2023-01-10T21:23:50.493Z,100726.13
2023-01-10T21:26:18.125Z,100753.16
2023-01-10T21:28:49.287Z,100726.91
2023-01-10T21:31:18.972Z,100783.56
2023-01-10T21:33:46.016Z,100759.78
2023-01-10T21:36:13.868Z,100738.19
2023-01-10T21:38:41.600Z,100717.50
2023-01-10T21:41:14.562Z,100755.94
2023-01-10T21:43:45.426Z,100748.19
2023-01-10T21:46:16.418Z,100751.03
2023-01-10T21:48:43.534Z,100741.41
2023-01-10T21:51:11.837Z,100751.53
2023-01-10T21:53:41.524Z,100689.53
2023-01-10T21:56:08.740Z,100724.81
2023-01-10T21:58:36.303Z,100686.94
2023-01-10T22:01:03.755Z,100682.34
2023-01-10T22:03:33.133Z,100688.88
2023-01-10T22:06:02.314Z,100726.81
2023-01-10T22:08:29.342Z,100686.78
2023-01-10T22:10:57.315Z,100745.88
2023-01-10T22:13:28.763Z,100683.88
2023-01-10T22:16:00.321Z,100701.50
2023-01-10T22:18:30.335Z,100679.53
2023-01-10T22:20:59.352Z,100701.03
2023-01-10T22:23:31.743Z,100706.03
2023-01-10T22:26:07.132Z,100668.78
2023-01-10T22:28:34.930Z,100737.56
2023-01-10T22:31:02.609Z,100732.09
2023-01-10T22:33:32.072Z,100690.19
2023-01-10T22:36:28.832Z,100710.19
2023-01-10T22:38:55.852Z,100680.53
2023-01-10T22:41:29.210Z,100715.56
2023-01-10T22:43:56.691Z,100683.59
2023-01-10T22:46:24.402Z,100693.66
2023-01-10T22:48:52.161Z,100693.66
2023-01-10T22:51:21.032Z,100674.88
2023-01-10T22:53:52.602Z,100658.06
2023-01-10T22:56:20.113Z,100632.41
2023-01-10T22:58:49.753Z,100648.91
2023-01-10T23:01:18.949Z,100681.94
2023-01-10T23:03:45.952Z,100638.78
2023-01-10T23:06:14.739Z,100659.94
2023-01-10T23:08:42.883Z,100646.47
2023-01-10T23:11:11.316Z,100685.31
2023-01-10T23:13:38.596Z,100649.66
2023-01-10T23:16:12.584Z,100641.09
2023-01-10T23:18:39.836Z,100707.28
2023-01-10T23:21:08.731Z,100667.16
2023-01-10T23:23:37.230Z,100674.44
2023-01-10T23:26:08.015Z,100693.00
2023-01-10T23:28:39.264Z,100662.16
2023-01-10T23:31:07.587Z,100638.41
2023-01-10T23:33:34.996Z,100646.13
2023-01-10T23:36:02.550Z,100664.75
2023-01-10T23:38:30.791Z,100639.69
2023-01-10T23:40:58.316Z,100660.94
2023-01-10T23:43:26.348Z,100610.50
2023-01-10T23:45:54.751Z,100620.44
2023-01-10T23:48:25.406Z,100625.66
2023-01-10T23:50:52.707Z,100604.16
2023-01-10T23:53:20.239Z,100606.09
2023-01-10T23:55:47.509Z,100665.41
2023-01-10T23:58:16.537Z,100627.75
